Avalon, Pennsylvania
Current Conditions -  °F | °C
As of 8:51 AM on Friday 24 Oct 2014 (Local Time) from KPIT Reporting Station
Overcast Overcast  
Wind Chill: 41°   Ceiling: 20000
Heat Index: 41°   Visibility: 10mi
Dew Point: 38°   Wind: 0mph
Humidity: 89%   Direction: NA
Pressure: 30.1"   Gusts: NA
Location:  40.5069°N, 80.0715°W
Report Text: KPIT 241251Z 00000KT 10SM FEW055 FEW130 OVC200 05/03 A3010 RMK AO2 SLP206 T00500033
Loading
Personal Weather Stations






























Interactive Weather Map New forecast layout! Learn more

10-Day Weather Forecast

Advertisements
Track Severe Weather on mobile